Hialeah, FL (33010)

8:40 AM EDT on August 23, 2017 (GMT -0400)
Miami Springs | | Change Station

Elev 26 ft 25.83 °N, 80.29 °W | Updated 15 minutes ago

Mostly Cloudy
Mostly Cloudy
78.2 °F
Feels Like 81 °F
N
0.0
Wind Variable Wind from NW

Today
High -- | Low -- °F
--% Chance of Precip.
Yesterday
High -- | Low -- °F
Precip. -- in
Pressure 29.94 in
Visibility 10.0 miles
Clouds Few 2500 ft
Few 15000 ft
Mostly Cloudy 25000 ft
Heat Index 81 °F
Dew Point 76 °F
Humidity 93%
Rainfall 0.09 in
Snow Depth Not available.
6:57 AM 7:49 PM
Waxing Crescent, 4% visible
METAR KMIA 231153Z 36003KT 10SM FEW025 FEW150 BKN250 28/24 A2993 RMK AO2 SLP136 60000 70012 T02780244 10278 20261 53009
Pressure 29.94 in
Visibility 10.0 miles
Clouds Few 2500 ft
Few 15000 ft
Mostly Cloudy 25000 ft
Heat Index 81 °F
Dew Point 76 °F
Humidity 93%
Rainfall 0.09 in
Snow Depth Not available.
6:57 AM 7:49 PM
Waxing Crescent, 4% visible
METAR KMIA 231153Z 36003KT 10SM FEW025 FEW150 BKN250 28/24 A2993 RMK AO2 SLP136 60000 70012 T02780244 10278 20261 53009

Get Severe Weather Alerts

Thanks for signing up!

Be on the lookout for a verification email in your inbox.

You'll start receiving the daily forecast at 6 AM.

×

10-Day Weather Forecast

Almanac

Astronomy

Aug. 23, 2017 Rise Set
Actual Time
Civil Twilight
Nautical Twilight
Astronomical Twilight
Moon
Length of Visible Light
Length of Day
Tomorrow will be .
, % of the Moon is Illuminated

Today's Extremes

State Highs State Lows

Community

WunderPhotos

Category 6

Welcome to Category 6. This is the collective home for Weather Underground's featured writeups by Dr. Jeff Masters (right), Bob Henson (left), Chris Burt, and other regular contributors.

Nearby

Air Quality

  Air Quality AQ Index Pollutant
Not available.

Snow Depth

Station Depth Elevation

Earthquake Activity

City Distance Mag. Time & Date
Minimum magnitude displayed is 2.5.

Coastal Water Temperatures

Place Temperature

Stations

Nearby Weather Stations

Station Location Temp. Windchill Dew Point Humidity Wind Precip. Elev Updated Type
                   

Watches & Warnings

There are currently no watches in effect.